createdAt,value
2022-11-14T00:28:21.015Z,1015.57
2022-11-14T00:58:21.022Z,1015.26
2022-11-14T01:28:21.013Z,1015.08
2022-11-14T01:58:21.009Z,1014.77
2022-11-14T02:28:21.041Z,1014.77
2022-11-14T02:58:21.044Z,1014.48
2022-11-14T03:28:21.036Z,1014.55
2022-11-14T03:58:21.051Z,1014.25
2022-11-14T04:28:21.056Z,1014.27
2022-11-14T04:58:21.068Z,1014.24
2022-11-14T05:28:21.060Z,1014.39
2022-11-14T05:58:21.069Z,1014.6
2022-11-14T06:28:21.061Z,1014.73
2022-11-14T06:58:21.080Z,1015.07
2022-11-14T07:28:21.080Z,1014.9
2022-11-14T07:58:21.083Z,1015.24
2022-11-14T08:28:21.087Z,1014.93
2022-11-14T08:58:21.094Z,1014.86
2022-11-14T09:28:21.110Z,1014.97
2022-11-14T09:58:21.093Z,1015.21
2022-11-14T10:28:21.100Z,1015.02
2022-11-14T10:58:21.092Z,1015.04
2022-11-14T11:28:21.129Z,1014.98
2022-11-14T11:58:21.119Z,1015.06
2022-11-14T12:28:21.128Z,1014.95
2022-11-14T12:58:21.138Z,1014.87
2022-11-14T13:28:24.945Z,1014.72
2022-11-14T13:58:21.163Z,1014.29
2022-11-14T14:28:21.161Z,1014.05
2022-11-14T14:58:29.997Z,1013.96
2022-11-14T15:28:21.163Z,1013.75
2022-11-14T15:58:28.229Z,1013.86
2022-11-14T16:28:21.166Z,1013.73
2022-11-14T16:58:21.182Z,1013.9
2022-11-14T17:28:21.167Z,1013.9
2022-11-14T17:58:21.175Z,1013.9
2022-11-14T18:28:21.182Z,1013.95
2022-11-14T18:58:21.199Z,1013.97
2022-11-14T19:28:21.191Z,1013.99
2022-11-14T19:58:21.187Z,1014
2022-11-14T20:28:21.204Z,1014.13
2022-11-14T20:58:21.196Z,1014.03
2022-11-14T21:28:21.207Z,1013.98
2022-11-14T21:58:21.237Z,1014.05
2022-11-14T22:28:21.222Z,1014.08
2022-11-14T22:58:21.241Z,1014.03
2022-11-14T23:28:21.230Z,1014.06
2022-11-14T23:58:21.246Z,1013.91
